createdAt,value
2018-12-10T00:00:48.876Z,95102.58
2018-12-10T00:03:22.727Z,95119.86
2018-12-10T00:05:51.182Z,95113.61
2018-12-10T00:08:19.581Z,95120.77
2018-12-10T00:10:48.237Z,95118.38
2018-12-10T00:13:16.649Z,95122.95
2018-12-10T00:15:45.054Z,95123.50
2018-12-10T00:18:13.517Z,95123.95
2018-12-10T00:20:42.245Z,95135.52
2018-12-10T00:23:10.733Z,95138.47
2018-12-10T00:25:39.135Z,95144.70
2018-12-10T00:28:07.557Z,95151.50
2018-12-10T00:30:35.994Z,95145.59
2018-12-10T00:33:05.075Z,95153.06
2018-12-10T00:35:33.773Z,95155.92
2018-12-10T00:38:04.651Z,95153.23
2018-12-10T00:40:33.087Z,95149.55
2018-12-10T00:43:03.416Z,95157.00
2018-12-10T00:45:32.051Z,95160.58
2018-12-10T00:48:00.439Z,95168.95
2018-12-10T00:50:28.867Z,95173.08
2018-12-10T00:52:57.268Z,95171.81
2018-12-10T00:55:25.844Z,95179.53
2018-12-10T00:57:54.236Z,95180.83
2018-12-10T01:00:22.784Z,95188.66
2018-12-10T01:02:51.178Z,95200.78
2018-12-10T01:05:19.708Z,95208.42
2018-12-10T01:07:48.142Z,95221.17
2018-12-10T01:10:16.920Z,95219.05
2018-12-10T01:12:45.360Z,95224.19
2018-12-10T01:15:13.935Z,95227.14
2018-12-10T01:17:42.331Z,95243.02
2018-12-10T01:20:10.799Z,95238.16
2018-12-10T01:22:39.182Z,95240.83
2018-12-10T01:25:07.725Z,95245.52
2018-12-10T01:27:38.983Z,95257.98
2018-12-10T01:30:08.563Z,95250.45
2018-12-10T01:32:36.968Z,95249.39
2018-12-10T01:35:07.424Z,95263.80
2018-12-10T01:37:35.907Z,95265.62
2018-12-10T01:40:06.955Z,95277.02
2018-12-10T01:42:35.661Z,95262.33
2018-12-10T01:45:07.969Z,95277.10
2018-12-10T01:47:36.404Z,95293.37
2018-12-10T01:50:06.244Z,95288.22
2018-12-10T01:52:34.680Z,95293.83
2018-12-10T01:55:06.267Z,95297.05
2018-12-10T01:57:34.796Z,95306.69
2018-12-10T02:00:06.468Z,95309.27
2018-12-10T02:02:34.856Z,95302.48
2018-12-10T02:05:05.100Z,95318.38
2018-12-10T02:07:33.517Z,95309.37
2018-12-10T02:10:06.640Z,95322.58
2018-12-10T02:12:35.049Z,95319.73
2018-12-10T02:15:06.599Z,95320.92
2018-12-10T02:17:34.990Z,95328.91
2018-12-10T02:20:05.675Z,95334.77
2018-12-10T02:22:34.068Z,95350.27
2018-12-10T02:25:04.592Z,95349.17
2018-12-10T02:27:33.000Z,95351.30
2018-12-10T02:30:03.631Z,95356.59
2018-12-10T02:32:32.084Z,95348.14
2018-12-10T02:35:00.471Z,95361.91
2018-12-10T02:37:28.899Z,95359.27
2018-12-10T02:39:57.357Z,95371.55
2018-12-10T02:42:25.744Z,95370.55
2018-12-10T02:44:54.136Z,95366.30
2018-12-10T02:47:22.690Z,95377.30
2018-12-10T02:49:51.105Z,95377.20
2018-12-10T02:52:19.631Z,95374.43
2018-12-10T02:54:48.027Z,95370.67
2018-12-10T02:57:16.457Z,95379.63
2018-12-10T02:59:44.936Z,95378.98
2018-12-10T03:02:13.408Z,95382.10
2018-12-10T03:04:41.823Z,95392.92
2018-12-10T03:07:10.486Z,95405.38
2018-12-10T03:09:42.880Z,95398.41
2018-12-10T03:12:11.343Z,95404.54
2018-12-10T03:14:39.761Z,95407.35
2018-12-10T03:17:08.204Z,95409.27
2018-12-10T03:19:36.652Z,95407.64
2018-12-10T03:22:06.029Z,95418.69
2018-12-10T03:24:34.447Z,95419.65
2018-12-10T03:27:05.199Z,95420.36
2018-12-10T03:29:33.617Z,95427.19
2018-12-10T03:32:04.729Z,95427.33
2018-12-10T03:34:33.147Z,95424.17
2018-12-10T03:37:03.568Z,95426.67
2018-12-10T03:39:32.046Z,95428.27
2018-12-10T03:42:00.510Z,95433.02
2018-12-10T03:44:29.091Z,95438.67
2018-12-10T03:46:57.533Z,95442.83
2018-12-10T03:49:25.983Z,95438.84
2018-12-10T03:51:54.607Z,95439.34
2018-12-10T03:54:23.073Z,95433.41
2018-12-10T03:56:51.546Z,95441.24
2018-12-10T03:59:20.012Z,95433.41
2018-12-10T04:01:48.516Z,95433.95
2018-12-10T04:04:16.975Z,95445.17
2018-12-10T04:06:45.406Z,95445.09
2018-12-10T04:09:13.833Z,95446.59
2018-12-10T04:11:42.295Z,95447.65
2018-12-10T04:14:10.738Z,95451.88
2018-12-10T04:16:39.211Z,95451.27
2018-12-10T04:19:07.646Z,95449.02
2018-12-10T04:21:36.108Z,95445.16
2018-12-10T04:24:05.226Z,95450.52
2018-12-10T04:26:33.692Z,95453.83
2018-12-10T04:29:04.610Z,95452.19
2018-12-10T04:31:33.079Z,95450.95
2018-12-10T04:34:02.926Z,95455.95
2018-12-10T04:36:31.396Z,95447.00
2018-12-10T04:38:59.899Z,95453.04
2018-12-10T04:41:28.353Z,95451.76
2018-12-10T04:43:56.765Z,95458.36
2018-12-10T04:46:25.220Z,95456.81
2018-12-10T04:48:53.943Z,95457.33
2018-12-10T04:51:22.371Z,95463.56
2018-12-10T04:53:51.194Z,95437.28
2018-12-10T04:56:19.609Z,95452.39
2018-12-10T04:58:48.056Z,95442.14
2018-12-10T05:01:16.524Z,95461.25
2018-12-10T05:03:44.952Z,95468.81
2018-12-10T05:06:13.531Z,95452.21
2018-12-10T05:08:41.968Z,95441.47
2018-12-10T05:11:10.422Z,95468.94
2018-12-10T05:13:39.444Z,95452.64
2018-12-10T05:16:09.245Z,95455.83
2018-12-10T05:18:37.912Z,95476.05
2018-12-10T05:21:06.643Z,95461.59
2018-12-10T05:23:35.115Z,95450.42
2018-12-10T05:26:05.696Z,95469.09
2018-12-10T05:28:34.115Z,95463.27
2018-12-10T05:31:04.668Z,95461.75
2018-12-10T05:33:33.079Z,95466.95
2018-12-10T05:36:03.635Z,95460.28
2018-12-10T05:38:32.168Z,95465.22
2018-12-10T05:41:00.583Z,95475.16
2018-12-10T05:43:29.017Z,95465.48
2018-12-10T05:45:57.395Z,95468.48
2018-12-10T05:48:25.807Z,95471.59
2018-12-10T05:50:54.200Z,95476.97
2018-12-10T05:53:22.619Z,95476.55
2018-12-10T05:55:50.999Z,95481.87
2018-12-10T05:58:19.409Z,95474.70
2018-12-10T06:00:47.871Z,95473.72
2018-12-10T06:03:16.360Z,95484.49
2018-12-10T06:05:44.768Z,95476.55
2018-12-10T06:08:13.201Z,95484.67
2018-12-10T06:10:41.581Z,95489.80
2018-12-10T06:13:10.000Z,95500.20
2018-12-10T06:15:38.389Z,95482.75
2018-12-10T06:18:06.839Z,95472.58
2018-12-10T06:20:35.227Z,95478.39
2018-12-10T06:23:05.152Z,95487.22
2018-12-10T06:25:33.547Z,95496.42
2018-12-10T06:28:05.316Z,95488.33
2018-12-10T06:30:33.716Z,95490.97
2018-12-10T06:33:04.548Z,95493.86
2018-12-10T06:35:32.937Z,95495.14
2018-12-10T06:38:04.460Z,95470.22
2018-12-10T06:40:32.879Z,95494.30
2018-12-10T06:43:03.684Z,95498.91
2018-12-10T06:45:32.111Z,95493.32
2018-12-10T06:48:00.491Z,95499.59
2018-12-10T06:50:28.915Z,95516.06
2018-12-10T06:52:57.332Z,95511.73
2018-12-10T06:55:25.748Z,95507.89
2018-12-10T06:57:54.135Z,95516.52
2018-12-10T07:00:22.597Z,95532.36
2018-12-10T07:02:50.993Z,95538.48
2018-12-10T07:05:19.416Z,95535.47
2018-12-10T07:07:47.821Z,95534.25
2018-12-10T07:10:16.253Z,95540.22
2018-12-10T07:12:44.672Z,95555.17
2018-12-10T07:15:13.191Z,95549.36
2018-12-10T07:17:41.630Z,95558.58
2018-12-10T07:20:10.073Z,95552.23
2018-12-10T07:22:38.469Z,95567.16
2018-12-10T07:25:07.032Z,95568.61
2018-12-10T07:27:35.432Z,95556.66
2018-12-10T07:30:08.049Z,95560.52
2018-12-10T07:32:36.448Z,95564.06
2018-12-10T07:35:05.233Z,95569.98
2018-12-10T07:37:33.698Z,95582.56
2018-12-10T07:40:06.566Z,95568.17
2018-12-10T07:42:35.057Z,95575.39
2018-12-10T07:45:06.580Z,95583.09
2018-12-10T07:47:35.135Z,95581.14
2018-12-10T07:50:05.261Z,95583.62
2018-12-10T07:52:33.676Z,95582.27
2018-12-10T07:55:05.341Z,95591.55
2018-12-10T07:57:33.851Z,95585.40
2018-12-10T08:00:05.876Z,95587.52
2018-12-10T08:02:34.417Z,95583.16
2018-12-10T08:05:12.363Z,95599.38
2018-12-10T08:07:36.057Z,95593.20
2018-12-10T08:10:05.590Z,95600.06
2018-12-10T08:12:33.979Z,95606.74
2018-12-10T08:15:04.791Z,95611.17
2018-12-10T08:17:33.194Z,95604.08
2018-12-10T08:20:03.713Z,95600.06
2018-12-10T08:22:32.117Z,95603.66
2018-12-10T08:25:00.776Z,95600.70
2018-12-10T08:27:29.168Z,95629.60
2018-12-10T08:29:57.566Z,95632.33
2018-12-10T08:32:26.064Z,95636.09
2018-12-10T08:34:54.461Z,95637.09
2018-12-10T08:37:22.899Z,95641.92
2018-12-10T08:39:51.334Z,95642.52
2018-12-10T08:42:19.781Z,95644.42
2018-12-10T08:44:48.174Z,95650.84
2018-12-10T08:47:16.569Z,95650.53
2018-12-10T08:49:44.997Z,95640.57
2018-12-10T08:52:13.397Z,95649.11
2018-12-10T08:54:41.789Z,95658.23
2018-12-10T08:57:10.337Z,95664.30
2018-12-10T08:59:41.835Z,95676.42
2018-12-10T09:02:11.102Z,95679.53
2018-12-10T09:04:39.524Z,95672.44
2018-12-10T09:07:07.972Z,95683.32
2018-12-10T09:09:36.363Z,95684.91
2018-12-10T09:12:05.741Z,95699.09
2018-12-10T09:14:34.177Z,95676.91
2018-12-10T09:17:05.528Z,95705.44
2018-12-10T09:19:33.960Z,95715.80
2018-12-10T09:22:05.796Z,95702.20
2018-12-10T09:24:34.231Z,95721.38
2018-12-10T09:27:07.476Z,95722.27
2018-12-10T09:29:36.007Z,95723.72
2018-12-10T09:32:05.639Z,95723.55
2018-12-10T09:34:34.052Z,95722.34
2018-12-10T09:37:04.472Z,95724.56
2018-12-10T09:39:33.220Z,95730.01
2018-12-10T09:42:02.667Z,95728.56
2018-12-10T09:44:31.044Z,95720.94
2018-12-10T09:46:59.810Z,95737.01
2018-12-10T09:49:28.307Z,95734.89
2018-12-10T09:51:56.692Z,95734.52
2018-12-10T09:54:25.113Z,95738.61
2018-12-10T09:56:53.504Z,95727.49
2018-12-10T09:59:21.875Z,95743.97
2018-12-10T10:01:50.372Z,95737.23
2018-12-10T10:04:18.757Z,95743.61
2018-12-10T10:06:47.272Z,95743.66
2018-12-10T10:09:15.707Z,95738.84
2018-12-10T10:11:44.196Z,95740.51
2018-12-10T10:14:12.720Z,95740.12
2018-12-10T10:16:41.881Z,95736.12
2018-12-10T10:19:10.272Z,95750.51
2018-12-10T10:21:38.777Z,95751.36
2018-12-10T10:24:07.216Z,95754.36
2018-12-10T10:26:35.613Z,95754.75
2018-12-10T10:29:05.075Z,95762.55
2018-12-10T10:31:33.606Z,95765.35
2018-12-10T10:34:04.604Z,95757.42
2018-12-10T10:36:33.114Z,95753.71
2018-12-10T10:39:03.725Z,95763.41
2018-12-10T10:41:32.125Z,95770.80
2018-12-10T10:44:01.954Z,95762.13
2018-12-10T10:46:30.735Z,95765.01
2018-12-10T10:48:59.141Z,95775.95
2018-12-10T10:51:27.593Z,95768.03
2018-12-10T10:53:55.983Z,95764.17
2018-12-10T10:56:24.420Z,95774.84
2018-12-10T10:58:52.817Z,95764.78
2018-12-10T11:01:26.078Z,95761.38
2018-12-10T11:03:54.477Z,95764.70
2018-12-10T11:06:23.196Z,95759.70
2018-12-10T11:08:51.591Z,95750.48
2018-12-10T11:11:20.020Z,95761.60
2018-12-10T11:13:48.594Z,95765.67
2018-12-10T11:16:17.072Z,95768.16
2018-12-10T11:18:45.465Z,95768.91
2018-12-10T11:21:13.848Z,95763.86
2018-12-10T11:23:42.275Z,95757.88
2018-12-10T11:26:10.810Z,95761.69
2018-12-10T11:28:39.235Z,95763.33
2018-12-10T11:31:07.701Z,95760.00
2018-12-10T11:33:36.261Z,95758.11
2018-12-10T11:36:05.188Z,95741.80
2018-12-10T11:38:33.667Z,95747.25
2018-12-10T11:41:05.208Z,95759.24
2018-12-10T11:43:33.764Z,95761.48
2018-12-10T11:46:04.675Z,95757.29
2018-12-10T11:48:33.111Z,95752.39
2018-12-10T11:51:04.173Z,95749.83
2018-12-10T11:53:32.608Z,95745.42
2018-12-10T11:56:03.527Z,95749.30
2018-12-10T11:58:31.964Z,95751.80
2018-12-10T12:01:00.475Z,95749.63
2018-12-10T12:03:28.919Z,95745.47
2018-12-10T12:05:57.320Z,95744.67
2018-12-10T12:08:25.753Z,95738.92
2018-12-10T12:10:54.153Z,95744.81
2018-12-10T12:13:22.576Z,95744.67
2018-12-10T12:15:50.989Z,95735.16
2018-12-10T12:18:19.444Z,95740.28
2018-12-10T12:20:47.951Z,95740.86
2018-12-10T12:23:16.427Z,95745.77
2018-12-10T12:25:44.844Z,95740.84
2018-12-10T12:28:13.251Z,95746.05
2018-12-10T12:30:41.935Z,95748.20
2018-12-10T12:33:10.344Z,95743.39
2018-12-10T12:35:38.834Z,95737.02
2018-12-10T12:38:07.402Z,95743.32
2018-12-10T12:40:35.939Z,95741.67
2018-12-10T12:43:08.481Z,95742.86
2018-12-10T12:45:35.536Z,95745.42
2018-12-10T12:48:04.858Z,95732.37
2018-12-10T12:50:33.253Z,95725.20
2018-12-10T12:53:03.572Z,95725.58
2018-12-10T12:55:31.952Z,95733.15
2018-12-10T12:58:00.446Z,95725.45
2018-12-10T13:00:28.945Z,95714.61
2018-12-10T13:02:57.380Z,95715.14
2018-12-10T13:05:25.757Z,95717.62
2018-12-10T13:07:54.185Z,95715.94
2018-12-10T13:10:22.590Z,95712.56
2018-12-10T13:12:51.015Z,95705.39
2018-12-10T13:15:20.027Z,95714.16
2018-12-10T13:17:48.575Z,95707.66
2018-12-10T13:20:17.101Z,95707.43
2018-12-10T13:22:47.607Z,95714.61
2018-12-10T13:25:15.977Z,95713.77
2018-12-10T13:27:44.429Z,95714.44
2018-12-10T13:30:12.840Z,95707.56
2018-12-10T13:32:41.363Z,95714.52
2018-12-10T13:35:09.791Z,95721.17
2018-12-10T13:37:38.227Z,95728.78
2018-12-10T13:40:07.136Z,95722.62
2018-12-10T13:42:35.657Z,95729.53
2018-12-10T13:45:05.936Z,95727.67
2018-12-10T13:47:34.425Z,95739.38
2018-12-10T13:50:05.339Z,95736.30
2018-12-10T13:52:33.728Z,95733.78
2018-12-10T13:55:04.612Z,95729.62
2018-12-10T13:57:32.999Z,95720.48
2018-12-10T14:00:03.429Z,95728.82
2018-12-10T14:02:31.849Z,95725.86
2018-12-10T14:05:06.256Z,95729.48
2018-12-10T14:07:34.649Z,95727.98
2018-12-10T14:10:06.113Z,95734.41
2018-12-10T14:12:34.621Z,95738.03
2018-12-10T14:15:07.304Z,95731.66
2018-12-10T14:17:35.784Z,95747.61
2018-12-10T14:20:07.416Z,95742.02
2018-12-10T14:22:35.949Z,95738.52
2018-12-10T14:25:06.296Z,95737.23
2018-12-10T14:27:34.774Z,95743.48
2018-12-10T14:30:07.667Z,95740.21
2018-12-10T14:32:39.240Z,95748.67
2018-12-10T14:35:09.104Z,95760.77
2018-12-10T14:37:37.527Z,95748.42
2018-12-10T14:40:07.902Z,95752.58
2018-12-10T14:42:45.591Z,95743.52
2018-12-10T14:45:14.124Z,95746.12
2018-12-10T14:47:42.512Z,95741.74
2018-12-10T14:50:10.954Z,95743.20
2018-12-10T14:52:39.452Z,95742.13
2018-12-10T14:55:07.880Z,95736.39
2018-12-10T14:57:36.265Z,95723.64
2018-12-10T15:00:05.115Z,95737.67
2018-12-10T15:02:33.518Z,95742.97
2018-12-10T15:05:04.622Z,95732.84
2018-12-10T15:07:33.473Z,95732.75
2018-12-10T15:10:05.227Z,95733.82
2018-12-10T15:12:33.655Z,95732.04
2018-12-10T15:15:04.585Z,95743.59
2018-12-10T15:17:33.016Z,95749.09
2018-12-10T15:20:03.392Z,95742.02
2018-12-10T15:22:31.915Z,95739.42
2018-12-10T15:25:00.319Z,95748.55
2018-12-10T15:27:28.768Z,95745.98
2018-12-10T15:29:57.161Z,95739.50
2018-12-10T15:32:25.653Z,95748.65
2018-12-10T15:34:54.117Z,95731.95
2018-12-10T15:37:23.328Z,95742.77
2018-12-10T15:39:51.712Z,95731.22
2018-12-10T15:42:20.102Z,95736.57
2018-12-10T15:44:48.520Z,95736.18
2018-12-10T15:47:16.951Z,95728.52
2018-12-10T15:49:45.324Z,95728.34
2018-12-10T15:52:13.768Z,95734.84
2018-12-10T15:54:42.155Z,95737.47
2018-12-10T15:57:10.587Z,95724.03
2018-12-10T15:59:41.848Z,95722.22
2018-12-10T16:02:10.293Z,95720.71
2018-12-10T16:04:39.992Z,95720.48
2018-12-10T16:07:08.691Z,95724.78
2018-12-10T16:09:37.718Z,95733.69
2018-12-10T16:12:06.179Z,95725.98
2018-12-10T16:14:34.609Z,95725.23
2018-12-10T16:17:05.816Z,95719.78
2018-12-10T16:19:34.247Z,95725.05
2018-12-10T16:22:06.567Z,95713.27
2018-12-10T16:24:35.375Z,95716.22
2018-12-10T16:27:05.887Z,95724.36
2018-12-10T16:29:34.624Z,95719.77
2018-12-10T16:32:05.925Z,95724.06
2018-12-10T16:34:34.374Z,95726.11
2018-12-10T16:37:08.826Z,95727.87
2018-12-10T16:39:37.263Z,95731.42
2018-12-10T16:42:05.993Z,95724.77
2018-12-10T16:44:34.732Z,95723.54
2018-12-10T16:47:05.860Z,95712.83
2018-12-10T16:49:34.288Z,95727.78
2018-12-10T16:52:06.255Z,95720.53
2018-12-10T16:54:34.644Z,95725.80
2018-12-10T16:57:05.268Z,95724.50
2018-12-10T16:59:33.799Z,95717.55
2018-12-10T17:02:04.612Z,95715.08
2018-12-10T17:04:33.050Z,95715.20
2018-12-10T17:07:04.172Z,95712.89
2018-12-10T17:09:32.639Z,95713.88
2018-12-10T17:14:35.561Z,95700.42
2018-12-10T17:17:06.602Z,95707.45
2018-12-10T17:19:35.118Z,95708.52
2018-12-10T17:22:05.828Z,95704.05
2018-12-10T17:24:34.372Z,95705.04
2018-12-10T17:27:06.869Z,95704.23
2018-12-10T17:29:35.276Z,95700.44
2018-12-10T17:32:05.922Z,95689.64
2018-12-10T17:34:34.343Z,95695.23
2018-12-10T17:37:05.972Z,95685.95
2018-12-10T17:39:34.408Z,95681.41
2018-12-10T17:42:06.029Z,95679.00
2018-12-10T17:44:34.564Z,95677.19
2018-12-10T17:47:08.711Z,95683.75
2018-12-10T17:49:37.280Z,95674.63
2018-12-10T17:52:07.454Z,95671.39
2018-12-10T17:54:35.855Z,95668.42
2018-12-10T17:57:06.604Z,95675.52
2018-12-10T17:59:35.070Z,95663.38
2018-12-10T18:02:05.831Z,95664.36
2018-12-10T18:04:34.528Z,95665.72
2018-12-10T18:07:05.326Z,95675.30
2018-12-10T18:09:33.808Z,95663.52
2018-12-10T18:12:05.203Z,95673.95
2018-12-10T18:14:33.647Z,95687.45
2018-12-10T18:17:06.115Z,95672.89
2018-12-10T18:19:35.676Z,95668.83
2018-12-10T18:22:06.981Z,95660.28
2018-12-10T18:24:35.531Z,95675.30
2018-12-10T18:27:06.030Z,95663.96
2018-12-10T18:29:34.412Z,95657.94
2018-12-10T18:32:06.835Z,95678.25
2018-12-10T18:34:35.253Z,95678.62
2018-12-10T18:37:07.036Z,95664.44
2018-12-10T18:39:36.843Z,95654.22
2018-12-10T18:42:05.936Z,95663.52
2018-12-10T18:44:34.320Z,95655.37
2018-12-10T18:47:05.248Z,95655.06
2018-12-10T18:49:33.650Z,95656.56
2018-12-10T18:52:04.668Z,95668.95
2018-12-10T18:54:33.055Z,95664.19
2018-12-10T18:57:05.010Z,95671.75
2018-12-10T18:59:33.437Z,95667.81
2018-12-10T19:02:03.411Z,95662.36
2018-12-10T19:04:31.837Z,95673.24
2018-12-10T19:07:00.478Z,95664.70
2018-12-10T19:09:29.055Z,95672.84
2018-12-10T19:11:57.815Z,95669.92
2018-12-10T19:14:26.300Z,95672.63
2018-12-10T19:16:54.724Z,95679.73
2018-12-10T19:19:23.271Z,95686.73
2018-12-10T19:21:51.680Z,95675.94
2018-12-10T19:24:20.123Z,95680.26
2018-12-10T19:26:48.689Z,95688.32
2018-12-10T19:29:17.393Z,95690.21
2018-12-10T19:31:45.929Z,95687.25
2018-12-10T19:34:14.420Z,95683.94
2018-12-10T19:36:42.884Z,95677.64
2018-12-10T19:39:11.640Z,95681.89
2018-12-10T19:41:40.809Z,95683.70
2018-12-10T19:44:09.750Z,95686.09
2018-12-10T19:46:38.267Z,95689.95
2018-12-10T19:49:07.427Z,95681.67
2018-12-10T19:51:35.940Z,95692.25
2018-12-10T19:54:06.232Z,95683.71
2018-12-10T19:56:34.696Z,95682.86
2018-12-10T19:59:05.117Z,95676.58
2018-12-10T20:01:35.859Z,95689.27
2018-12-10T20:04:06.140Z,95688.05
2018-12-10T20:06:38.930Z,95682.98
2018-12-10T20:09:10.473Z,95685.97
2018-12-10T20:11:38.999Z,95689.78
2018-12-10T20:14:07.577Z,95689.53
2018-12-10T20:16:36.894Z,95692.80
2018-12-10T20:19:06.787Z,95695.73
2018-12-10T20:21:35.572Z,95703.65
2018-12-10T20:24:06.755Z,95708.30
2018-12-10T20:26:35.147Z,95729.64
2018-12-10T20:29:06.819Z,95725.30
2018-12-10T20:31:36.087Z,95727.75
2018-12-10T20:34:06.784Z,95736.64
2018-12-10T20:36:35.244Z,95729.44
2018-12-10T20:39:07.656Z,95715.81
2018-12-10T20:41:36.150Z,95710.11
2018-12-10T20:44:06.505Z,95694.90
2018-12-10T20:46:35.032Z,95684.20
2018-12-10T20:49:06.514Z,95673.14
2018-12-10T20:51:35.019Z,95670.70
2018-12-10T20:54:06.008Z,95681.19
2018-12-10T20:56:34.515Z,95683.93
2018-12-10T20:59:05.983Z,95700.38
2018-12-10T21:01:34.481Z,95686.23
2018-12-10T21:04:05.195Z,95690.91
2018-12-10T21:06:35.067Z,95695.33
2018-12-10T21:09:08.425Z,95696.38
2018-12-10T21:11:37.420Z,95689.00
2018-12-10T21:14:06.076Z,95696.96
2018-12-10T21:16:34.557Z,95705.96
2018-12-10T21:19:05.557Z,95704.42
2018-12-10T21:21:34.009Z,95714.73
2018-12-10T21:24:04.551Z,95713.41
2018-12-10T21:26:33.049Z,95707.88
2018-12-10T21:29:04.213Z,95700.91
2018-12-10T21:31:33.109Z,95706.75
2018-12-10T21:34:03.509Z,95705.47
2018-12-10T21:36:32.038Z,95712.39
2018-12-10T21:39:00.549Z,95720.97
2018-12-10T21:41:29.738Z,95723.02
2018-12-10T21:43:58.153Z,95722.35
2018-12-10T21:46:26.549Z,95728.58
2018-12-10T21:48:54.983Z,95727.05
2018-12-10T21:51:23.412Z,95730.93
2018-12-10T21:53:51.844Z,95732.09
2018-12-10T21:56:20.353Z,95733.00
2018-12-10T21:58:48.785Z,95728.45
2018-12-10T22:01:17.183Z,95727.22
2018-12-10T22:03:46.206Z,95719.23
2018-12-10T22:06:14.704Z,95727.48
2018-12-10T22:08:43.093Z,95725.10
2018-12-10T22:11:11.527Z,95727.75
2018-12-10T22:13:39.907Z,95717.19
2018-12-10T22:16:08.334Z,95729.59
2018-12-10T22:18:36.755Z,95729.27
2018-12-10T22:21:05.973Z,95729.87
2018-12-10T22:23:34.372Z,95725.30
2018-12-10T22:26:06.021Z,95735.11
2018-12-10T22:28:34.472Z,95728.01
2018-12-10T22:31:06.203Z,95731.19
2018-12-10T22:33:34.662Z,95726.25
2018-12-10T22:36:06.022Z,95733.24
2018-12-10T22:38:34.491Z,95729.52
2018-12-10T22:41:06.076Z,95736.43
2018-12-10T22:43:34.507Z,95739.61
2018-12-10T22:46:05.159Z,95722.80
2018-12-10T22:48:33.617Z,95743.09
2018-12-10T22:51:05.251Z,95743.64
2018-12-10T22:53:33.706Z,95752.59
2018-12-10T22:56:04.612Z,95753.06
2018-12-10T22:58:33.179Z,95748.75
2018-12-10T23:01:03.988Z,95758.77
2018-12-10T23:03:32.441Z,95752.56
2018-12-10T23:06:00.848Z,95754.27
2018-12-10T23:08:29.291Z,95751.97
2018-12-10T23:10:57.705Z,95765.50
2018-12-10T23:13:26.159Z,95761.00
2018-12-10T23:15:54.580Z,95764.00
2018-12-10T23:18:23.064Z,95754.09
2018-12-10T23:20:51.466Z,95765.28
2018-12-10T23:23:19.858Z,95755.30
2018-12-10T23:25:48.308Z,95765.53
2018-12-10T23:28:16.712Z,95755.91
2018-12-10T23:30:45.147Z,95766.92
2018-12-10T23:33:13.548Z,95768.75
2018-12-10T23:35:41.996Z,95760.16
2018-12-10T23:38:10.457Z,95754.75
2018-12-10T23:40:39.002Z,95764.15
2018-12-10T23:43:12.530Z,95761.96
2018-12-10T23:45:40.959Z,95758.63
2018-12-10T23:48:09.364Z,95758.11
2018-12-10T23:50:37.832Z,95757.78
2018-12-10T23:53:06.227Z,95766.08
2018-12-10T23:55:34.749Z,95766.02
2018-12-10T23:58:05.351Z,95759.47
